Time;durP1;ratioP1;P1;durP2;ratioP2;P2;SDS_P1;SDS_P2;PMS_P1;PMS_P2;Temp;Humidity;BMP_temperature;BMP_pressure;BME280_temperature;BME280_humidity;BME280_pressure;Samples;Min_cycle;Max_cycle;Signal;HPM_P1;HPM_P2
2020/12/18 00:01:06;;;;;;;10.87;4.70;;;;;;;4.52;100.00;101508.91;5011747;28;20283;-67
2020/12/18 00:03:32;;;;;;;9.30;4.23;;;;;;;4.48;100.00;101504.41;5011803;28;20026;-67
2020/12/18 00:05:57;;;;;;;12.13;4.10;;;;;;;4.62;100.00;101505.88;5011669;28;20025;-67
2020/12/18 00:08:23;;;;;;;12.43;4.30;;;;;;;4.74;100.00;101502.84;5011833;28;20033;-67
2020/12/18 00:10:48;;;;;;;9.27;3.53;;;;;;;4.75;100.00;101496.84;5011572;28;20497;-68
2020/12/18 00:13:14;;;;;;;10.37;3.97;;;;;;;4.88;100.00;101503.38;5011661;28;20022;-68
2020/12/18 00:15:39;;;;;;;8.27;3.80;;;;;;;4.98;100.00;101495.13;5011982;28;20493;-67
2020/12/18 00:18:04;;;;;;;11.13;3.90;;;;;;;5.12;100.00;101493.91;5032641;28;20381;-67
2020/12/18 00:20:30;;;;;;;12.83;4.57;;;;;;;5.14;100.00;101497.44;5013799;28;20026;-67
2020/12/18 00:22:55;;;;;;;14.67;5.20;;;;;;;5.11;100.00;101499.94;5011204;28;20057;-67
2020/12/18 00:25:21;;;;;;;11.07;4.10;;;;;;;5.24;100.00;101502.13;5011621;28;20133;-67
2020/12/18 00:27:46;;;;;;;10.50;3.90;;;;;;;5.36;100.00;101508.59;5014102;28;20097;-67
2020/12/18 00:30:13;;;;;;;12.17;4.00;;;;;;;5.42;100.00;101508.78;5012477;28;20026;-67
2020/12/18 00:32:39;;;;;;;9.90;4.73;;;;;;;5.40;100.00;101505.25;5011449;28;20030;-68
2020/12/18 00:35:06;;;;;;;10.53;4.17;;;;;;;5.27;100.00;101507.41;5010448;28;20291;-67
2020/12/18 00:37:32;;;;;;;8.70;3.97;;;;;;;5.11;100.00;101501.63;5011056;28;20269;-67
2020/12/18 00:39:58;;;;;;;10.53;3.93;;;;;;;5.00;100.00;101501.25;5011010;28;20350;-68
2020/12/18 00:42:23;;;;;;;11.17;4.30;;;;;;;4.92;100.00;101500.06;5011431;28;20021;-67
2020/12/18 00:44:49;;;;;;;15.33;4.57;;;;;;;4.81;100.00;101506.56;5010673;28;20533;-67
2020/12/18 00:47:14;;;;;;;13.03;3.80;;;;;;;4.88;100.00;101506.84;5011348;28;20515;-66
2020/12/18 00:49:41;;;;;;;13.63;4.60;;;;;;;4.95;100.00;101502.75;5009741;28;20101;-67
2020/12/18 00:52:07;;;;;;;7.73;3.80;;;;;;;4.98;100.00;101508.09;5010654;28;20493;-67
2020/12/18 00:54:33;;;;;;;11.60;4.27;;;;;;;4.86;100.00;101502.44;5011253;28;20285;-67
2020/12/18 00:56:58;;;;;;;13.73;5.17;;;;;;;4.81;100.00;101503.97;5011162;28;20279;-67
2020/12/18 00:59:23;;;;;;;12.13;4.80;;;;;;;4.69;100.00;101504.38;5011570;28;20504;-67
2020/12/18 01:01:56;;;;;;;12.70;4.60;;;;;;;4.63;100.00;101509.34;4992737;28;20040;-68
2020/12/18 01:04:22;;;;;;;10.07;4.83;;;;;;;4.55;100.00;101495.19;5010324;28;20105;-68
2020/12/18 01:06:47;;;;;;;10.40;5.03;;;;;;;4.54;100.00;101496.91;5010147;28;20764;-68
2020/12/18 01:09:12;;;;;;;13.20;4.47;;;;;;;4.50;100.00;101502.81;5011005;28;20107;-68
2020/12/18 01:11:38;;;;;;;13.00;4.80;;;;;;;4.63;100.00;101512.81;5009921;28;20121;-68
2020/12/18 01:14:04;;;;;;;12.73;5.30;;;;;;;4.70;100.00;101504.44;5010781;28;20037;-67
2020/12/18 01:16:29;;;;;;;13.67;5.60;;;;;;;4.60;100.00;101507.53;5026083;28;20039;-68
2020/12/18 01:18:55;;;;;;;15.60;5.87;;;;;;;4.59;100.00;101507.44;5011280;28;20037;-68
2020/12/18 01:21:20;;;;;;;13.33;5.23;;;;;;;4.49;100.00;101515.69;5009928;28;20026;-68
2020/12/18 01:23:46;;;;;;;11.40;5.13;;;;;;;4.38;100.00;101523.03;5010795;28;20526;-67
2020/12/18 01:26:11;;;;;;;15.53;5.77;;;;;;;4.39;100.00;101519.63;5009826;28;20041;-68
2020/12/18 01:28:36;;;;;;;13.63;5.83;;;;;;;4.37;100.00;101524.75;5010539;28;20489;-67
2020/12/18 01:31:02;;;;;;;12.50;5.57;;;;;;;4.38;100.00;101530.81;5008661;28;20026;-67
2020/12/18 01:33:27;;;;;;;13.07;5.67;;;;;;;4.33;100.00;101521.94;5009104;28;20374;-67
2020/12/18 01:35:52;;;;;;;16.63;6.43;;;;;;;4.20;100.00;101524.88;5009483;28;20076;-67
2020/12/18 01:38:18;;;;;;;20.67;7.17;;;;;;;4.10;100.00;101523.59;5009999;28;20036;-67
2020/12/18 01:40:44;;;;;;;16.70;6.60;;;;;;;4.08;100.00;101531.31;5010148;28;20033;-68
2020/12/18 01:43:09;;;;;;;17.30;7.43;;;;;;;3.96;100.00;101535.97;5008836;28;20034;-68
2020/12/18 01:45:35;;;;;;;21.27;8.13;;;;;;;3.89;100.00;101544.31;5010558;28;20036;-67
2020/12/18 01:48:00;;;;;;;20.73;7.93;;;;;;;3.72;100.00;101542.72;5006043;28;20501;-67
2020/12/18 01:50:27;;;;;;;18.47;7.83;;;;;;;3.78;100.00;101545.56;5010151;28;20557;-67
2020/12/18 01:52:52;;;;;;;23.67;7.50;;;;;;;3.78;100.00;101548.16;5009495;28;20029;-67
2020/12/18 01:55:20;;;;;;;20.97;7.77;;;;;;;3.82;100.00;101542.28;5007491;28;20265;-68
2020/12/18 01:57:48;;;;;;;24.77;7.63;;;;;;;3.69;100.00;101542.59;4995422;28;20034;-67
2020/12/18 02:00:14;;;;;;;20.23;8.27;;;;;;;3.54;100.00;101545.41;4991032;28;20268;-67
2020/12/18 02:02:39;;;;;;;18.97;7.53;;;;;;;3.60;100.00;101534.44;4996470;28;20303;-67
2020/12/18 02:05:05;;;;;;;18.30;7.50;;;;;;;3.46;100.00;101541.59;5005805;28;20276;-68
2020/12/18 02:07:35;;;;;;;23.10;8.03;;;;;;;3.40;100.00;101539.63;4989849;28;20030;-67
2020/12/18 02:10:01;;;;;;;21.33;8.50;;;;;;;3.39;100.00;101539.53;4988348;28;20108;-68
2020/12/18 02:12:26;;;;;;;20.80;8.00;;;;;;;3.63;100.00;101537.13;5007978;28;20775;-68
2020/12/18 02:14:52;;;;;;;24.70;8.83;;;;;;;3.65;100.00;101539.00;5006344;28;20390;-67
2020/12/18 02:17:18;;;;;;;22.17;8.43;;;;;;;3.50;100.00;101533.13;5000686;28;20387;-68
2020/12/18 02:19:51;;;;;;;23.10;8.57;;;;;;;3.38;100.00;101532.59;5000979;28;20050;-67
2020/12/18 02:22:19;;;;;;;27.10;9.20;;;;;;;3.35;100.00;101530.78;4999853;28;20076;-67
2020/12/18 02:25:00;;;;;;;25.33;8.63;;;;;;;3.16;100.00;101539.44;4992437;28;20312;-67
2020/12/18 02:27:25;;;;;;;25.80;8.80;;;;;;;3.18;100.00;101547.25;4986623;28;20283;-67
2020/12/18 02:29:51;;;;;;;25.17;8.47;;;;;;;3.10;100.00;101538.25;5002283;28;20677;-67
2020/12/18 02:32:17;;;;;;;26.63;8.40;;;;;;;3.02;100.00;101531.84;4997830;28;20030;-67
2020/12/18 02:34:43;;;;;;;29.70;9.60;;;;;;;2.96;100.00;101527.31;4999127;28;20026;-67
2020/12/18 02:37:08;;;;;;;28.77;9.83;;;;;;;2.87;100.00;101530.34;4995559;28;20022;-68
2020/12/18 02:39:34;;;;;;;21.33;9.40;;;;;;;2.74;100.00;101530.59;5003223;28;20042;-68
2020/12/18 02:41:59;;;;;;;23.07;8.47;;;;;;;2.68;100.00;101521.69;4997703;28;20034;-68
2020/12/18 02:44:24;;;;;;;37.00;10.83;;;;;;;2.81;100.00;101517.16;4996244;28;20034;-67
2020/12/18 02:46:50;;;;;;;30.57;10.53;;;;;;;2.98;100.00;101517.91;4993446;28;20626;-67
2020/12/18 02:49:15;;;;;;;38.40;10.17;;;;;;;3.04;100.00;101519.91;4996539;28;20448;-67
2020/12/18 02:51:43;;;;;;;34.27;10.30;;;;;;;3.15;100.00;101508.31;4993235;28;20553;-68
2020/12/18 02:54:10;;;;;;;30.17;10.73;;;;;;;3.30;100.00;101516.78;4999122;28;20215;-67
2020/12/18 02:56:35;;;;;;;42.83;12.00;;;;;;;3.34;100.00;101505.75;4999509;28;20728;-68
2020/12/18 02:59:00;;;;;;;39.57;11.40;;;;;;;3.31;100.00;101515.97;4994873;28;20398;-68
2020/12/18 03:01:26;;;;;;;31.73;11.83;;;;;;;3.36;100.00;101519.63;4996813;28;20440;-67
2020/12/18 03:03:51;;;;;;;46.07;11.97;;;;;;;3.28;100.00;101523.59;4994929;28;20026;-68
2020/12/18 03:06:17;;;;;;;35.73;11.30;;;;;;;3.19;100.00;101526.63;4997217;28;20030;-68
2020/12/18 03:08:42;;;;;;;47.27;11.40;;;;;;;3.24;100.00;101526.84;4998020;28;20032;-68
2020/12/18 03:11:07;;;;;;;44.93;11.50;;;;;;;3.44;100.00;101528.59;4978488;28;20022;-67
2020/12/18 03:13:33;;;;;;;47.03;11.73;;;;;;;3.43;100.00;101532.00;5003708;28;20026;-67
2020/12/18 03:15:58;;;;;;;41.77;11.30;;;;;;;3.36;100.00;101527.38;4998158;28;20065;-67
2020/12/18 03:18:24;;;;;;;45.53;12.50;;;;;;;3.22;100.00;101531.06;5001533;28;20587;-68
2020/12/18 03:20:49;;;;;;;42.20;11.73;;;;;;;3.00;100.00;101528.31;4995378;28;20026;-67
2020/12/18 03:23:15;;;;;;;43.33;11.97;;;;;;;2.90;100.00;101527.88;4998485;28;20026;-68
2020/12/18 03:25:40;;;;;;;37.47;12.53;;;;;;;2.75;100.00;101527.19;4997308;28;20033;-68
2020/12/18 03:28:06;;;;;;;33.63;10.40;;;;;;;2.67;100.00;101528.56;4999723;28;20030;-68
2020/12/18 03:30:31;;;;;;;40.17;11.23;;;;;;;2.66;100.00;101531.91;4999155;28;20429;-68
2020/12/18 03:32:57;;;;;;;46.67;12.00;;;;;;;2.76;100.00;101522.91;4999548;28;20029;-68
2020/12/18 03:35:22;;;;;;;58.27;13.87;;;;;;;2.99;100.00;101514.50;5004226;28;20037;-68
2020/12/18 03:37:48;;;;;;;56.10;13.57;;;;;;;3.05;100.00;101509.63;4999050;28;20038;-68
2020/12/18 03:40:16;;;;;;;47.73;13.27;;;;;;;3.10;100.00;101515.88;4996386;28;20383;-68
2020/12/18 03:42:42;;;;;;;66.10;13.17;;;;;;;3.37;100.00;101515.31;4999926;28;20084;-68
2020/12/18 03:45:07;;;;;;;53.23;13.23;;;;;;;3.37;100.00;101526.56;5004995;28;20268;-67
2020/12/18 03:47:32;;;;;;;50.57;12.80;;;;;;;3.49;100.00;101532.25;5003272;28;20891;-67
2020/12/18 03:49:58;;;;;;;63.13;14.13;;;;;;;3.49;100.00;101532.25;5000161;28;20091;-68
2020/12/18 03:52:23;;;;;;;47.60;12.80;;;;;;;3.67;100.00;101532.19;5001829;28;20022;-68
2020/12/18 03:54:49;;;;;;;51.63;12.77;;;;;;;3.68;100.00;101528.78;5000332;28;20030;-68
2020/12/18 03:57:15;;;;;;;52.80;12.80;;;;;;;3.71;100.00;101528.00;4998922;28;20033;-68
2020/12/18 03:59:40;;;;;;;56.73;13.43;;;;;;;3.64;100.00;101533.75;4997113;28;20448;-69
2020/12/18 04:02:06;;;;;;;53.13;13.90;;;;;;;3.49;100.00;101536.53;4999805;28;20034;-68
2020/12/18 04:04:31;;;;;;;36.27;11.83;;;;;;;3.14;100.00;101533.28;5001316;28;20393;-68
2020/12/18 04:06:57;;;;;;;38.27;12.23;;;;;;;2.89;100.00;101539.03;4985348;28;20051;-68
2020/12/18 04:09:22;;;;;;;37.33;11.70;;;;;;;2.72;100.00;101536.50;5004061;28;20079;-67
2020/12/18 04:11:48;;;;;;;40.10;10.90;;;;;;;2.55;100.00;101543.47;5003045;28;20072;-67
2020/12/18 04:14:14;;;;;;;57.83;12.27;;;;;;;2.57;100.00;101531.50;4997677;28;20034;-68
2020/12/18 04:16:39;;;;;;;47.33;12.37;;;;;;;2.50;100.00;101532.03;5004631;28;20029;-67
2020/12/18 04:19:05;;;;;;;56.87;13.07;;;;;;;2.53;100.00;101534.75;4996381;28;20045;-67
2020/12/18 04:21:31;;;;;;;46.60;12.03;;;;;;;2.53;100.00;101533.03;4996331;28;20044;-68
2020/12/18 04:23:56;;;;;;;53.47;13.40;;;;;;;2.60;100.00;101529.97;4994885;28;20034;-68
2020/12/18 04:26:22;;;;;;;66.17;13.73;;;;;;;2.47;100.00;101521.56;4998062;28;20677;-67
2020/12/18 04:28:47;;;;;;;50.00;13.37;;;;;;;2.41;100.00;101529.88;5001760;28;20041;-67
2020/12/18 04:31:12;;;;;;;73.97;14.13;;;;;;;2.45;100.00;101518.03;5000994;28;20040;-67
2020/12/18 04:33:38;;;;;;;61.17;13.83;;;;;;;2.52;100.00;101515.78;5009992;28;20225;-67
2020/12/18 04:36:04;;;;;;;68.83;14.63;;;;;;;2.57;100.00;101510.88;5001831;28;20056;-68
2020/12/18 04:38:29;;;;;;;68.00;14.40;;;;;;;2.52;100.00;101512.31;4995105;28;20029;-67
2020/12/18 04:40:55;;;;;;;75.10;14.70;;;;;;;2.52;100.00;101513.22;5001449;28;20463;-68
2020/12/18 04:43:20;;;;;;;69.87;14.20;;;;;;;2.49;100.00;101517.34;4999399;28;20025;-67
2020/12/18 04:45:46;;;;;;;65.53;14.40;;;;;;;2.70;100.00;101510.63;4995928;28;20030;-67
2020/12/18 04:48:13;;;;;;;78.23;15.53;;;;;;;2.81;100.00;101513.69;4996780;28;20026;-68
2020/12/18 04:50:39;;;;;;;85.53;16.43;;;;;;;2.72;100.00;101508.97;4992444;28;20289;-67
2020/12/18 04:53:05;;;;;;;80.40;16.00;;;;;;;2.78;100.00;101511.84;4996243;28;20320;-67
2020/12/18 04:55:34;;;;;;;72.80;15.67;;;;;;;2.72;100.00;101511.56;4999319;28;20289;-67
2020/12/18 04:58:02;;;;;;;79.17;14.90;;;;;;;2.52;100.00;101517.50;5003343;28;20699;-67
2020/12/18 05:00:27;;;;;;;78.50;15.07;;;;;;;2.50;100.00;101513.94;4996580;28;20411;-68
2020/12/18 05:02:53;;;;;;;79.63;16.37;;;;;;;2.49;100.00;101523.41;4998437;28;20376;-67
2020/12/18 05:05:19;;;;;;;71.80;15.63;;;;;;;2.40;100.00;101516.91;5004479;28;20026;-68
2020/12/18 05:07:44;;;;;;;90.30;16.40;;;;;;;2.31;100.00;101518.25;5003545;28;20380;-68
2020/12/18 05:10:10;;;;;;;80.93;14.70;;;;;;;2.32;100.00;101514.88;5002263;28;20480;-67
2020/12/18 05:12:36;;;;;;;88.57;16.07;;;;;;;2.37;100.00;101511.59;5001861;28;20397;-68
2020/12/18 05:15:06;;;;;;;101.63;16.57;;;;;;;2.40;100.00;101511.75;4993706;28;20399;-68
2020/12/18 05:17:32;;;;;;;72.47;16.33;;;;;;;2.36;100.00;101510.72;4996624;28;21495;-67
2020/12/18 05:19:58;;;;;;;113.83;16.90;;;;;;;2.38;100.00;101503.06;4995878;28;20281;-68
2020/12/18 05:22:24;;;;;;;78.00;16.33;;;;;;;2.58;100.00;101492.84;4995471;28;20376;-68
2020/12/18 05:24:53;;;;;;;89.13;16.97;;;;;;;2.59;100.00;101491.16;4994437;28;20262;-68
2020/12/18 05:27:21;;;;;;;92.03;17.53;;;;;;;2.52;100.00;101496.84;4994319;28;20296;-67
2020/12/18 05:29:47;;;;;;;87.73;16.27;;;;;;;2.57;100.00;101500.53;4997436;28;20292;-68
2020/12/18 05:32:13;;;;;;;94.37;17.40;;;;;;;2.67;100.00;101502.75;4999837;28;20346;-67
2020/12/18 05:34:40;;;;;;;83.33;16.33;;;;;;;2.60;100.00;101500.66;4999956;28;20073;-67
2020/12/18 05:37:05;;;;;;;86.73;16.00;;;;;;;2.60;100.00;101505.84;4994054;28;20340;-67
2020/12/18 05:39:34;;;;;;;77.60;16.03;;;;;;;2.42;100.00;101504.97;4995931;28;20784;-67
2020/12/18 05:42:02;;;;;;;81.70;15.60;;;;;;;2.49;100.00;101513.06;4993747;28;20034;-67
2020/12/18 05:44:28;;;;;;;85.47;15.93;;;;;;;2.43;100.00;101509.34;4995816;28;20339;-68
2020/12/18 05:47:14;;;;;;;78.33;15.00;;;;;;;2.40;100.00;101506.59;4999969;28;20302;-67
2020/12/18 05:49:40;;;;;;;79.70;14.37;;;;;;;2.37;100.00;101506.44;4994790;28;20293;-66
2020/12/18 05:52:18;;;;;;;87.93;15.27;;;;;;;2.41;100.00;101500.59;4992209;28;20688;-67
2020/12/18 05:54:44;;;;;;;76.67;15.87;;;;;;;2.43;100.00;101505.06;4996454;28;20516;-68
2020/12/18 05:57:14;;;;;;;81.97;15.00;;;;;;;2.46;100.00;101506.88;4998626;28;20289;-67
2020/12/18 05:59:45;;;;;;;62.93;14.60;;;;;;;2.49;100.00;101507.91;4994242;28;20469;-67
2020/12/18 06:02:13;;;;;;;62.87;15.67;;;;;;;2.52;100.00;101509.75;4997746;28;20285;-67
2020/12/18 06:04:39;;;;;;;73.30;15.43;;;;;;;2.67;100.00;101507.91;4997494;28;20373;-68
2020/12/18 06:07:06;;;;;;;84.30;15.53;;;;;;;2.82;100.00;101510.28;4995919;28;20316;-67
2020/12/18 06:09:33;;;;;;;74.50;15.13;;;;;;;2.67;100.00;101510.47;5000292;28;20366;-68
2020/12/18 06:11:59;;;;;;;70.63;14.73;;;;;;;2.56;100.00;101512.56;4993093;28;20297;-67
2020/12/18 06:14:25;;;;;;;76.97;15.17;;;;;;;2.52;100.00;101513.22;4995924;28;20355;-67
2020/12/18 06:16:53;;;;;;;88.47;14.53;;;;;;;2.58;100.00;101512.63;4994864;28;20293;-68
2020/12/18 06:19:21;;;;;;;65.93;13.70;;;;;;;2.57;100.00;101505.69;4995145;28;20464;-67
2020/12/18 06:21:58;;;;;;;67.60;13.50;;;;;;;2.49;100.00;101507.91;4993673;28;20293;-68
2020/12/18 06:24:24;;;;;;;63.83;13.50;;;;;;;2.49;100.00;101505.31;4996301;28;20339;-66
2020/12/18 06:26:57;;;;;;;65.50;12.77;;;;;;;2.57;100.00;101492.78;5001009;28;20886;-68
2020/12/18 06:29:24;;;;;;;68.73;13.30;;;;;;;2.72;100.00;101500.34;4999715;28;20593;-67
2020/12/18 06:31:49;;;;;;;81.87;13.27;;;;;;;2.71;100.00;101499.47;4997482;28;20371;-67
2020/12/18 06:34:23;;;;;;;62.00;13.00;;;;;;;2.81;100.00;101493.03;4994127;28;20379;-67
2020/12/18 06:36:49;;;;;;;75.93;12.30;;;;;;;2.81;100.00;101493.03;5000099;28;20038;-68
2020/12/18 06:39:27;;;;;;;70.90;12.87;;;;;;;2.79;100.00;101503.31;5005668;28;20284;-68
2020/12/18 06:42:23;;;;;;;68.50;12.10;;;;;;;2.84;100.00;101491.47;4996828;28;20034;-68
2020/12/18 06:44:59;;;;;;;57.70;11.60;;;;;;;2.92;100.00;101495.28;4979675;28;20289;-67
2020/12/18 06:47:24;;;;;;;53.83;11.67;;;;;;;2.97;100.00;101492.03;4997928;28;20285;-67
2020/12/18 06:49:59;;;;;;;52.07;11.40;;;;;;;2.95;100.00;101494.53;5001214;28;20292;-67
2020/12/18 06:52:44;;;;;;;60.17;11.50;;;;;;;2.93;100.00;101502.22;4998004;28;20027;-66
2020/12/18 06:55:42;;;;;;;57.27;11.07;;;;;;;2.93;100.00;101494.47;5004349;28;20637;-66
2020/12/18 06:58:08;;;;;;;48.87;9.90;;;;;;;2.94;100.00;101492.78;4954407;28;20308;-66
2020/12/18 07:00:47;;;;;;;48.80;9.93;;;;;;;2.90;100.00;101491.72;5007694;28;20311;-66
2020/12/18 07:03:35;;;;;;;44.63;10.03;;;;;;;2.89;100.00;101489.97;5001887;28;20877;-66
2020/12/18 07:06:04;;;;;;;53.53;9.43;;;;;;;2.92;100.00;101495.28;4999467;28;20280;-65
2020/12/18 07:08:32;;;;;;;42.27;9.33;;;;;;;2.84;100.00;101501.78;5004588;28;20274;-66
2020/12/18 07:11:11;;;;;;;45.93;9.40;;;;;;;2.86;100.00;101497.56;4996959;28;20601;-65
2020/12/18 07:13:40;;;;;;;38.53;8.83;;;;;;;2.83;100.00;101494.88;5004101;28;20282;-65
2020/12/18 07:16:08;;;;;;;37.70;7.67;;;;;;;2.83;100.00;101502.63;5002950;28;20286;-66
2020/12/18 07:18:37;;;;;;;32.67;8.17;;;;;;;2.75;100.00;101491.03;5001888;28;20334;-66
2020/12/18 07:21:06;;;;;;;45.57;9.00;;;;;;;2.78;100.00;101491.16;4999748;28;20373;-66
2020/12/18 07:23:34;;;;;;;41.07;7.80;;;;;;;2.70;100.00;101496.81;4999278;28;20347;-66
2020/12/18 07:26:03;;;;;;;42.60;8.13;;;;;;;2.68;100.00;101494.19;4982111;28;20313;-66
2020/12/18 07:28:29;;;;;;;39.90;7.97;;;;;;;2.71;100.00;101485.69;5002145;28;20276;-66
2020/12/18 07:30:56;;;;;;;46.40;8.57;;;;;;;2.78;100.00;101486.00;5007685;28;20331;-66
2020/12/18 07:33:23;;;;;;;36.83;8.30;;;;;;;2.85;100.00;101485.47;5006539;28;20296;-66
2020/12/18 07:35:52;;;;;;;42.43;8.60;;;;;;;2.85;100.00;101487.19;5001010;28;20285;-66
2020/12/18 07:38:29;;;;;;;43.53;7.70;;;;;;;3.02;100.00;101480.19;4986087;28;20370;-66
2020/12/18 07:41:06;;;;;;;37.10;7.80;;;;;;;3.11;100.00;101481.47;5002577;28;20295;-66
2020/12/18 07:43:34;;;;;;;40.17;8.20;;;;;;;3.18;100.00;101482.66;5000202;28;20288;-65
2020/12/18 07:46:06;;;;;;;37.53;7.33;;;;;;;3.21;100.00;101473.31;5000425;28;20300;-66
2020/12/18 07:48:33;;;;;;;32.73;6.70;;;;;;;3.21;100.00;101475.91;5003563;28;20284;-66
2020/12/18 07:51:03;;;;;;;33.37;7.33;;;;;;;3.14;100.00;101476.44;5005788;28;20289;-66
2020/12/18 07:53:30;;;;;;;36.07;6.83;;;;;;;3.25;100.00;101471.75;5001188;28;20288;-66
2020/12/18 07:56:12;;;;;;;26.63;6.37;;;;;;;3.26;100.00;101465.75;5002707;28;20282;-65
2020/12/18 07:58:48;;;;;;;26.43;6.23;;;;;;;3.34;100.00;101469.56;4999085;28;20289;-66
2020/12/18 08:01:18;;;;;;;28.97;6.73;;;;;;;3.39;100.00;101474.91;4994886;28;20368;-65
2020/12/18 08:03:46;;;;;;;22.77;6.30;;;;;;;3.43;100.00;101469.06;5002190;28;20295;-65
2020/12/18 08:06:14;;;;;;;29.33;6.13;;;;;;;3.46;100.00;101475.25;4996075;28;20270;-65
2020/12/18 08:08:40;;;;;;;20.77;6.07;;;;;;;3.48;100.00;101473.59;5004259;28;20360;-66
2020/12/18 08:11:14;;;;;;;26.50;6.00;;;;;;;3.50;100.00;101484.91;5001311;28;20356;-65
2020/12/18 08:13:40;;;;;;;27.07;5.70;;;;;;;3.55;100.00;101473.88;4998594;28;20108;-66
2020/12/18 08:16:10;;;;;;;19.07;5.07;;;;;;;3.65;100.00;101473.47;4998897;28;20825;-66
2020/12/18 08:18:37;;;;;;;19.17;5.23;;;;;;;3.73;100.00;101475.53;5005543;28;20288;-65
2020/12/18 08:21:03;;;;;;;24.67;5.03;;;;;;;3.87;100.00;101467.44;5002319;28;20280;-66
2020/12/18 08:23:32;;;;;;;15.57;5.17;;;;;;;4.07;100.00;101472.63;5001379;28;20261;-67
2020/12/18 08:25:59;;;;;;;18.77;4.60;;;;;;;4.24;100.00;101470.72;4993791;28;20349;-68
2020/12/18 08:28:28;;;;;;;16.73;4.27;;;;;;;4.32;100.00;101468.41;4992297;28;20277;-68
2020/12/18 08:30:54;;;;;;;15.80;4.67;;;;;;;4.68;100.00;101472.41;4991719;28;20305;-65
2020/12/18 08:33:20;;;;;;;11.00;3.73;;;;;;;5.21;100.00;101467.44;4992308;28;20268;-65
2020/12/18 08:35:47;;;;;;;10.67;3.67;;;;;;;5.58;100.00;101467.00;4994415;28;20314;-65
2020/12/18 08:38:13;;;;;;;11.10;3.03;;;;;;;5.77;100.00;101456.41;4996840;28;20265;-66
2020/12/18 08:40:44;;;;;;;11.07;3.33;;;;;;;6.05;100.00;101457.31;4979935;28;20025;-66
2020/12/18 08:43:10;;;;;;;8.63;2.20;;;;;;;6.23;100.00;101457.03;5002280;28;20040;-66
2020/12/18 08:45:43;;;;;;;5.33;1.90;;;;;;;6.15;100.00;101464.56;4999926;28;20022;-65
2020/12/18 08:48:10;;;;;;;5.30;2.00;;;;;;;5.99;100.00;101473.59;4996454;28;20114;-66
2020/12/18 08:50:37;;;;;;;4.87;2.07;;;;;;;6.23;100.00;101468.31;5005207;28;20523;-65
2020/12/18 08:53:10;;;;;;;5.13;1.90;;;;;;;6.80;100.00;101462.22;5009197;28;20022;-65
2020/12/18 08:55:36;;;;;;;3.93;1.77;;;;;;;6.85;100.00;101471.03;4991266;28;20113;-66
2020/12/18 08:58:09;;;;;;;6.87;2.20;;;;;;;6.30;100.00;101470.28;4991766;28;20105;-66
2020/12/18 09:00:34;;;;;;;6.47;2.13;;;;;;;5.86;100.00;101472.28;4991301;28;20477;-66
2020/12/18 09:03:03;;;;;;;5.57;2.00;;;;;;;5.71;100.00;101476.97;4991157;28;20069;-66
2020/12/18 09:05:30;;;;;;;7.77;2.27;;;;;;;5.64;100.00;101481.88;4994671;28;20021;-66
2020/12/18 09:08:15;;;;;;;6.97;2.10;;;;;;;5.62;100.00;101481.84;4999737;28;20113;-65
2020/12/18 09:10:42;;;;;;;8.17;2.30;;;;;;;5.68;100.00;101487.22;4991109;28;20018;-66
2020/12/18 09:13:17;;;;;;;8.03;2.20;;;;;;;5.69;100.00;101473.41;5006127;28;20293;-65
2020/12/18 09:16:03;;;;;;;9.00;2.37;;;;;;;5.77;100.00;101477.16;5006925;28;20288;-66
2020/12/18 09:18:35;;;;;;;10.73;2.80;;;;;;;5.87;100.00;101474.03;4990129;28;20277;-65
2020/12/18 09:21:08;;;;;;;10.20;2.50;;;;;;;6.03;100.00;101474.56;4991625;28;20651;-65
2020/12/18 09:23:33;;;;;;;6.27;2.50;;;;;;;6.08;100.00;101475.63;4972877;28;20018;-66
2020/12/18 09:26:00;;;;;;;9.97;2.40;;;;;;;6.05;100.00;101472.91;4991182;28;20328;-66
2020/12/18 09:28:27;;;;;;;5.90;2.50;;;;;;;6.00;100.00;101482.25;4972887;28;20421;-66
2020/12/18 09:30:57;;;;;;;5.00;2.27;;;;;;;5.98;100.00;101482.22;4990680;28;20257;-65
2020/12/18 09:33:25;;;;;;;5.57;2.40;;;;;;;5.97;100.00;101474.38;4979924;28;20265;-65
2020/12/18 09:36:12;;;;;;;7.80;2.87;;;;;;;5.97;100.00;101488.25;4991015;28;20258;-65
2020/12/18 09:38:43;;;;;;;6.97;2.47;;;;;;;6.02;100.00;101488.38;4990321;28;20753;-66
2020/12/18 09:41:13;;;;;;;11.87;2.67;;;;;;;5.96;100.00;101493.38;4990734;28;20257;-64
2020/12/18 09:43:38;;;;;;;6.17;2.37;;;;;;;5.91;100.00;101494.94;4994727;28;20277;-64
2020/12/18 09:46:06;;;;;;;8.57;2.37;;;;;;;5.94;100.00;101495.06;4975341;28;20276;-64
2020/12/18 09:48:31;;;;;;;6.93;2.60;;;;;;;5.93;100.00;101499.34;4978070;28;20021;-66
2020/12/18 09:50:58;;;;;;;6.17;2.50;;;;;;;6.03;100.00;101504.00;4995067;28;20620;-65
2020/12/18 09:53:25;;;;;;;8.27;2.23;;;;;;;6.05;100.00;101491.94;4998220;28;20028;-65
2020/12/18 09:55:52;;;;;;;7.17;2.57;;;;;;;6.00;100.00;101500.44;4992665;28;20617;-63
2020/12/18 09:58:17;;;;;;;8.67;2.90;;;;;;;6.04;100.00;101507.47;4990384;28;20360;-65
2020/12/18 10:00:43;;;;;;;5.83;2.57;;;;;;;6.21;100.00;101503.72;4975606;28;20348;-64
2020/12/18 10:03:09;;;;;;;4.93;2.37;;;;;;;6.28;100.00;101510.88;4974014;28;20026;-66
2020/12/18 10:05:34;;;;;;;6.10;2.03;;;;;;;6.31;100.00;101521.38;4991245;28;20672;-66
2020/12/18 10:08:00;;;;;;;7.57;2.40;;;;;;;6.30;100.00;101522.22;5005887;28;20018;-66
2020/12/18 10:10:26;;;;;;;7.17;2.30;;;;;;;6.30;100.00;101522.22;5002810;28;20473;-65
2020/12/18 10:12:55;;;;;;;5.43;2.40;;;;;;;6.44;100.00;101526.13;5002511;28;20045;-66
2020/12/18 10:15:21;;;;;;;8.13;2.50;;;;;;;6.46;100.00;101516.66;5000016;28;20745;-66
2020/12/18 10:17:47;;;;;;;9.17;2.40;;;;;;;6.58;100.00;101518.75;4990325;28;20093;-66
2020/12/18 10:20:12;;;;;;;10.47;3.07;;;;;;;6.60;100.00;101521.41;4973900;28;20101;-66
2020/12/18 10:22:38;;;;;;;8.90;2.97;;;;;;;6.69;100.00;101516.50;4994909;28;20032;-65
2020/12/18 10:25:03;;;;;;;5.73;2.90;;;;;;;6.81;100.00;101511.66;5007864;28;20030;-65
2020/12/18 10:27:29;;;;;;;6.63;2.53;;;;;;;6.82;100.00;101502.16;5005993;28;20032;-64
2020/12/18 10:29:57;;;;;;;7.40;2.17;;;;;;;6.93;100.00;101496.44;4995280;28;20029;-66
2020/12/18 10:32:26;;;;;;;5.87;2.80;;;;;;;6.99;100.00;101486.19;4992906;28;20022;-65
2020/12/18 10:34:52;;;;;;;9.73;2.87;;;;;;;7.08;100.00;101479.50;4989384;28;20474;-67
2020/12/18 10:37:18;;;;;;;7.03;2.73;;;;;;;7.19;100.00;101488.47;4992133;28;20121;-64
2020/12/18 10:39:43;;;;;;;9.97;2.83;;;;;;;7.21;100.00;101489.41;4993461;28;20069;-66
2020/12/18 10:42:09;;;;;;;5.63;2.37;;;;;;;7.29;100.00;101485.31;4992484;28;20022;-66
2020/12/18 10:44:35;;;;;;;7.23;2.33;;;;;;;7.43;100.00;101476.13;4989522;28;20037;-65
2020/12/18 10:47:01;;;;;;;5.33;2.07;;;;;;;7.45;100.00;101477.06;4991129;28;20026;-65
2020/12/18 10:49:27;;;;;;;8.17;2.30;;;;;;;7.54;100.00;101464.28;4989400;28;20473;-64
2020/12/18 10:51:52;;;;;;;7.90;2.20;;;;;;;7.64;100.00;101460.22;4994061;28;20052;-66
2020/12/18 10:54:18;;;;;;;4.80;2.07;;;;;;;7.69;100.00;101463.81;4988277;28;20281;-66
2020/12/18 10:56:45;;;;;;;5.83;2.00;;;;;;;7.70;100.00;101460.34;4975009;28;20025;-66
2020/12/18 10:59:11;;;;;;;12.57;2.37;;;;;;;7.77;100.00;101466.63;4990999;28;20077;-66
2020/12/18 11:01:38;;;;;;;5.03;2.10;;;;;;;7.94;100.00;101467.91;4991931;28;20030;-66
2020/12/18 11:04:03;;;;;;;4.60;2.10;;;;;;;7.98;100.00;101466.25;4983722;28;20013;-64
2020/12/18 11:06:29;;;;;;;4.87;2.10;;;;;;;7.97;100.00;101460.16;4992905;28;20038;-65
2020/12/18 11:08:55;;;;;;;6.53;2.20;;;;;;;8.04;99.48;101462.06;4972446;28;20081;-65
2020/12/18 11:11:21;;;;;;;7.53;2.00;;;;;;;8.02;100.00;101466.38;4991444;28;20022;-66
2020/12/18 11:13:47;;;;;;;6.07;2.27;;;;;;;8.08;100.00;101463.91;5006462;28;20021;-65
2020/12/18 11:16:12;;;;;;;5.43;1.83;;;;;;;8.28;98.28;101458.28;4991095;28;20529;-64
2020/12/18 11:18:38;;;;;;;4.90;1.57;;;;;;;8.35;97.64;101465.41;4991324;28;20040;-65